Llanidloes, United Kingdom
Current Conditions -  °F | °C
As of 11:50 AM on Wednesday 28 Jan 2015 (Local Time) from EGOS Reporting Station
Few Clouds Few Clouds  
Wind Chill: 31°   Ceiling: Unl
Heat Index: 41°   Visibility: 6mi
Dew Point: 28°   Wind: 24mph
Humidity: 61%   Direction: 270°W
Pressure: 29.53"   Gusts: 36mph
Location:  52.45°N, 3.54°W
Report Text: EGOS 281150Z 27021G31KT 9999 FEW024 05/M02 Q1000 RESHGS BLU NOSIG
Loading
Personal Weather Stations






























Interactive Weather Map New forecast layout! Learn more

10-Day Weather Forecast

Advertisements
Track Severe Weather on mobile